Time;durP1;ratioP1;P1;durP2;ratioP2;P2;SDS_P1;SDS_P2;PMS_P1;PMS_P2;Temp;Humidity;BMP_temperature;BMP_pressure;BME280_temperature;BME280_humidity;BME280_pressure;Samples;Min_cycle;Max_cycle;Signal;HPM_P1;HPM_P2
2021/01/08 00:02:08;;;;;;;16.63;11.70;;;179.20;2124.80;;;;;;5116926;28;20027;-74
2021/01/08 00:04:34;;;;;;;14.80;9.90;;;179.20;2124.80;;;;;;5116713;28;20038;-74
2021/01/08 00:07:00;;;;;;;14.00;9.85;;;154.50;2150.40;;;;;;5116789;28;20515;-74
2021/01/08 00:09:25;;;;;;;17.60;10.88;;;179.20;2150.40;;;;;;5116737;28;20023;-74
2021/01/08 00:11:55;;;;;;;12.82;9.13;;;179.40;2124.80;;;;;;5116506;28;20063;-73
2021/01/08 00:14:21;;;;;;;15.48;10.65;;;179.40;2124.80;;;;;;5116846;28;20023;-75
2021/01/08 00:16:47;;;;;;;15.70;9.93;;;179.50;2124.80;;;;;;5116575;28;20016;-73
2021/01/08 00:19:13;;;;;;;11.02;7.55;;;179.50;2099.20;;;;;;5116366;28;20023;-74
2021/01/08 00:21:44;;;;;;;13.07;9.90;;;179.50;2099.20;;;;;;5116528;28;20498;-74
2021/01/08 00:24:11;;;;;;;10.32;9.00;;;179.50;2099.20;;;;;;5116247;28;20030;-74
2021/01/08 00:26:38;;;;;;;13.10;8.73;;;179.50;2124.80;;;;;;5116426;28;20032;-74
2021/01/08 00:29:05;;;;;;;15.88;9.43;;;179.30;2124.80;;;;;;5132346;27;20051;-73
2021/01/08 00:31:39;;;;;;;14.30;8.88;;;154.50;2150.40;;;;;;5136744;27;20066;-74
2021/01/08 00:34:08;;;;;;;;;;;154.50;2150.40;;;;;;5136992;27;20502;-74
2021/01/08 00:36:35;;;;;;;13.98;8.35;;;154.50;2176.00;;;;;;5136811;27;19903;-74
2021/01/08 00:39:03;;;;;;;13.45;8.65;;;154.40;2201.60;;;;;;5136801;27;20118;-74
2021/01/08 00:41:36;;;;;;;14.32;9.30;;;154.40;2201.60;;;;;;5136814;27;20035;-74
2021/01/08 00:44:02;;;;;;;14.15;9.57;;;154.40;2201.60;;;;;;5136632;27;20049;-75
2021/01/08 00:46:38;;;;;;;14.30;9.13;;;154.40;2201.60;;;;;;5136695;27;20098;-75
2021/01/08 00:49:06;;;;;;;14.25;8.32;;;154.40;2201.60;;;;;;5136267;27;20068;-75
2021/01/08 00:51:33;;;;;;;13.32;8.85;;;154.30;2201.60;;;;;;5136422;27;20027;-75
2021/01/08 00:53:59;;;;;;;18.13;10.77;;;154.30;2227.20;;;;;;5136381;27;20015;-75
2021/01/08 00:56:25;;;;;;;17.02;12.38;;;154.20;2227.20;;;;;;5136359;27;20489;-74
2021/01/08 00:58:51;;;;;;;13.68;8.50;;;154.30;2227.20;;;;;;5135674;27;20023;-74
2021/01/08 01:01:17;;;;;;;9.35;7.32;;;154.20;2227.20;;;;;;5136259;27;20424;-77
2021/01/08 01:03:43;;;;;;;11.25;8.00;;;154.20;2252.80;;;;;;5136165;27;20027;-75
2021/01/08 01:06:09;;;;;;;10.70;7.68;;;154.20;2252.80;;;;;;5136117;27;20434;-75
2021/01/08 01:08:35;;;;;;;10.27;6.30;;;154.10;2252.80;;;;;;5136123;27;20059;-77
2021/01/08 01:11:01;;;;;;;10.23;7.60;;;154.00;2252.80;;;;;;5135997;27;20104;-74
2021/01/08 01:13:28;;;;;;;12.45;7.95;;;154.10;2252.80;;;;;;5136024;27;20072;-74
2021/01/08 01:15:54;;;;;;;17.10;10.93;;;154.10;2252.80;;;;;;5117465;27;20372;-74
2021/01/08 01:18:20;;;;;;;12.23;8.02;;;154.10;2252.80;;;;;;5135943;27;20097;-74
2021/01/08 01:20:46;;;;;;;12.43;7.95;;;154.10;2252.80;;;;;;5135930;27;20024;-74
2021/01/08 01:23:12;;;;;;;14.55;9.77;;;154.00;2252.80;;;;;;5135933;27;20380;-74
2021/01/08 01:25:37;;;;;;;10.30;7.50;;;154.00;2252.80;;;;;;5117311;27;20027;-74
2021/01/08 01:28:04;;;;;;;10.52;7.35;;;153.90;2252.80;;;;;;5135892;27;20048;-75
2021/01/08 01:30:31;;;;;;;13.40;7.43;;;153.80;2252.80;;;;;;5135376;27;20044;-73
2021/01/08 01:32:59;;;;;;;11.48;6.68;;;153.80;2252.80;;;;;;5135580;27;20054;-74
2021/01/08 01:35:26;;;;;;;8.93;7.20;;;153.80;2252.80;;;;;;5135526;27;20059;-74
2021/01/08 01:37:52;;;;;;;15.30;10.68;;;153.70;2252.80;;;;;;5135361;27;20019;-76
2021/01/08 01:40:21;;;;;;;13.38;10.05;;;153.70;2252.80;;;;;;5135279;27;20471;-75
2021/01/08 01:42:47;;;;;;;24.70;15.85;;;153.60;2252.80;;;;;;5135431;27;20031;-75
2021/01/08 01:45:13;;;;;;;14.27;9.77;;;153.70;2252.80;;;;;;5135371;27;20095;-75
2021/01/08 01:47:40;;;;;;;26.83;16.73;;;153.60;2252.80;;;;;;5135374;27;20494;-75
2021/01/08 01:50:07;;;;;;;16.80;12.85;;;128.90;2252.80;;;;;;5135152;27;20114;-76
2021/01/08 01:52:35;;;;;;;13.00;9.43;;;128.90;2252.80;;;;;;5134939;27;20023;-75
2021/01/08 01:55:03;;;;;;;14.80;10.57;;;128.90;2252.80;;;;;;5116654;27;20425;-75
2021/01/08 01:57:28;;;;;;;14.30;9.88;;;128.90;2252.80;;;;;;5135171;27;20034;-75
2021/01/08 01:59:54;;;;;;;15.20;11.13;;;128.80;2252.80;;;;;;5134937;27;20019;-76
2021/01/08 02:02:38;;;;;;;14.07;10.13;;;128.80;2252.80;;;;;;5135223;27;20023;-74
2021/01/08 02:05:07;;;;;;;12.15;8.48;;;128.80;2252.80;;;;;;5134874;27;20019;-76
2021/01/08 02:07:37;;;;;;;13.18;9.13;;;128.80;2252.80;;;;;;5134960;27;20084;-75
2021/01/08 02:10:05;;;;;;;13.07;7.88;;;128.80;2252.80;;;;;;5134572;27;20031;-76
2021/01/08 02:12:32;;;;;;;12.40;8.80;;;128.70;2252.80;;;;;;5116235;27;20440;-75
2021/01/08 02:15:00;;;;;;;13.20;9.40;;;128.70;2252.80;;;;;;5134833;27;20027;-75
2021/01/08 02:17:28;;;;;;;10.27;7.25;;;128.60;2252.80;;;;;;5134802;27;20050;-76
2021/01/08 02:20:02;;;;;;;11.35;7.80;;;128.70;2252.80;;;;;;5134711;27;20111;-76
2021/01/08 02:22:40;;;;;;;12.65;7.43;;;128.60;2252.80;;;;;;5134983;27;20033;-75
2021/01/08 02:25:25;;;;;;;14.90;10.27;;;128.60;2252.80;;;;;;5134939;27;20518;-76
2021/01/08 02:28:24;;;;;;;9.77;6.75;;;128.70;2252.80;;;;;;5134436;27;20126;-76
2021/01/08 02:30:52;;;;;;;9.80;6.18;;;128.60;2252.80;;;;;;5134728;27;20395;-76
2021/01/08 02:33:19;;;;;;;10.82;7.03;;;128.70;2252.80;;;;;;5134882;27;20027;-78
2021/01/08 02:35:48;;;;;;;17.58;7.07;;;128.70;2252.80;;;;;;5134362;27;20019;-76
2021/01/08 02:38:16;;;;;;;10.25;7.22;;;128.50;2252.80;;;;;;5134880;27;20054;-75
2021/01/08 02:40:45;;;;;;;10.38;5.70;;;128.40;2252.80;;;;;;5134214;27;20023;-75
2021/01/08 02:43:12;;;;;;;12.35;7.18;;;128.30;2252.80;;;;;;5134730;27;20031;-75
2021/01/08 02:45:38;;;;;;;12.35;5.85;;;128.30;2252.80;;;;;;5134599;27;20035;-79
2021/01/08 02:48:04;;;;;;;9.52;6.18;;;128.40;2252.80;;;;;;5134531;27;20023;-76
2021/01/08 02:50:30;;;;;;;8.90;4.38;;;128.30;2252.80;;;;;;5134524;27;20023;-75
2021/01/08 02:52:59;;;;;;;16.20;7.95;;;128.30;2252.80;;;;;;5134364;27;20087;-75
2021/01/08 02:55:30;;;;;;;8.40;4.82;;;128.30;2252.80;;;;;;5134079;28;20124;-76
2021/01/08 02:57:59;;;;;;;7.03;4.68;;;128.30;2252.80;;;;;;5134327;28;20019;-76
2021/01/08 03:00:32;;;;;;;5.03;3.13;;;128.20;2252.80;;;;;;5134457;28;20023;-75
2021/01/08 03:03:02;;;;;;;14.98;7.82;;;128.10;2252.80;;;;;;5134460;28;20025;-75
2021/01/08 03:05:29;;;;;;;6.50;4.28;;;128.30;2252.80;;;;;;5134223;28;20430;-75
2021/01/08 03:07:56;;;;;;;8.77;5.05;;;128.30;2252.80;;;;;;5134016;28;20058;-76
2021/01/08 03:10:25;;;;;;;8.02;5.40;;;128.20;2252.80;;;;;;5134064;28;20106;-75
2021/01/08 03:12:57;;;;;;;6.50;4.15;;;128.20;2252.80;;;;;;5134060;28;20110;-75
2021/01/08 03:15:23;;;;;;;13.35;7.28;;;128.20;2252.80;;;;;;5134102;28;20027;-75
2021/01/08 03:17:50;;;;;;;20.05;11.27;;;128.30;2252.80;;;;;;5134101;28;20023;-75
2021/01/08 03:20:15;;;;;;;15.55;9.52;;;128.50;2252.80;;;;;;5134070;28;20016;-74
2021/01/08 03:22:41;;;;;;;10.98;5.95;;;128.40;2252.80;;;;;;5136017;27;20059;-75
2021/01/08 03:25:07;;;;;;;13.68;7.35;;;128.40;2252.80;;;;;;5138388;27;20424;-75
2021/01/08 03:27:33;;;;;;;11.15;7.47;;;128.50;2252.80;;;;;;5138028;27;20039;-76
2021/01/08 03:29:59;;;;;;;8.00;4.07;;;128.60;2252.80;;;;;;5138171;27;20506;-76
2021/01/08 03:32:24;;;;;;;9.65;5.20;;;128.50;2252.80;;;;;;5137862;27;20031;-76
2021/01/08 03:34:51;;;;;;;6.60;4.03;;;128.50;2252.80;;;;;;5119488;27;20019;-75
2021/01/08 03:37:16;;;;;;;11.20;6.78;;;128.50;2252.80;;;;;;5137854;27;20024;-74
2021/01/08 03:39:42;;;;;;;8.50;4.72;;;128.40;2252.80;;;;;;5137766;27;20015;-75
2021/01/08 03:42:08;;;;;;;14.02;7.35;;;128.50;2252.80;;;;;;5138171;27;20034;-75
2021/01/08 03:44:34;;;;;;;21.58;11.52;;;128.70;2227.20;;;;;;5137857;27;20022;-75
2021/01/08 03:46:59;;;;;;;10.05;5.60;;;128.80;2227.20;;;;;;5137789;27;20032;-75
2021/01/08 03:49:25;;;;;;;19.17;10.48;;;128.70;2227.20;;;;;;5137473;27;20023;-75
2021/01/08 03:51:51;;;;;;;10.18;5.85;;;128.70;2227.20;;;;;;5137382;27;20471;-75
2021/01/08 03:54:16;;;;;;;7.70;4.75;;;128.50;2252.80;;;;;;5125184;27;20051;-74
2021/01/08 03:56:42;;;;;;;11.65;6.60;;;128.50;2252.80;;;;;;5117205;28;20032;-73
2021/01/08 03:59:07;;;;;;;7.35;5.13;;;128.60;2227.20;;;;;;5116923;28;20020;-75
2021/01/08 04:01:33;;;;;;;7.07;4.72;;;128.60;2227.20;;;;;;5117022;28;20028;-75
2021/01/08 04:03:59;;;;;;;12.60;5.57;;;128.70;2227.20;;;;;;5116810;28;20069;-74
2021/01/08 04:06:24;;;;;;;18.98;9.85;;;128.70;2227.20;;;;;;5116723;28;20050;-75
2021/01/08 04:08:50;;;;;;;12.20;7.43;;;128.70;2227.20;;;;;;5116749;28;20020;-75
2021/01/08 04:11:16;;;;;;;13.20;7.97;;;128.80;2227.20;;;;;;5116548;28;20076;-76
2021/01/08 04:13:41;;;;;;;9.38;5.50;;;153.60;2201.60;;;;;;5116784;28;20565;-73
2021/01/08 04:16:07;;;;;;;8.48;5.53;;;153.60;2201.60;;;;;;5098479;28;20094;-75
2021/01/08 04:18:33;;;;;;;8.07;4.32;;;153.60;2201.60;;;;;;5116386;28;20172;-75
2021/01/08 04:20:58;;;;;;;6.30;4.13;;;128.90;2201.60;;;;;;5116386;28;20024;-75
2021/01/08 04:23:24;;;;;;;5.25;3.60;;;128.80;2201.60;;;;;;5116480;28;20126;-74
2021/01/08 04:25:50;;;;;;;5.13;3.95;;;128.70;2201.60;;;;;;5116322;28;20494;-76
2021/01/08 04:28:16;;;;;;;6.53;4.10;;;128.60;2227.20;;;;;;5128818;27;20126;-74
2021/01/08 04:30:41;;;;;;;11.52;6.55;;;128.50;2252.80;;;;;;5136731;27;20023;-74
2021/01/08 04:33:07;;;;;;;11.05;6.75;;;128.60;2252.80;;;;;;5117333;28;20023;-74
2021/01/08 04:35:33;;;;;;;10.40;4.88;;;128.60;2252.80;;;;;;5136453;27;20475;-74
2021/01/08 04:37:58;;;;;;;11.23;5.82;;;128.60;2227.20;;;;;;5136643;27;20111;-75
2021/01/08 04:40:24;;;;;;;6.57;4.03;;;128.70;2227.20;;;;;;5137135;27;20098;-75
2021/01/08 04:42:50;;;;;;;7.97;4.22;;;128.90;2201.60;;;;;;5136901;27;20031;-75
2021/01/08 04:45:16;;;;;;;9.80;5.38;;;128.80;2201.60;;;;;;5136739;27;20106;-74
2021/01/08 04:47:43;;;;;;;10.32;6.93;;;128.90;2176.00;;;;;;5136541;27;20371;-74
2021/01/08 04:50:09;;;;;;;7.43;3.88;;;128.80;2201.60;;;;;;5136394;27;20027;-76
2021/01/08 04:52:35;;;;;;;7.43;4.32;;;128.70;2201.60;;;;;;5136251;27;20062;-74
2021/01/08 04:55:02;;;;;;;11.57;6.70;;;128.80;2201.60;;;;;;5136510;27;20405;-75
2021/01/08 04:57:31;;;;;;;10.23;5.82;;;153.60;2176.00;;;;;;5136547;27;20027;-73
2021/01/08 04:59:57;;;;;;;5.45;3.33;;;153.60;2201.60;;;;;;5136363;27;20126;-75
2021/01/08 05:02:23;;;;;;;8.82;5.70;;;128.90;2150.40;;;;;;5136252;27;20019;-75
2021/01/08 05:04:50;;;;;;;7.75;4.55;;;128.90;2176.00;;;;;;5136291;27;20026;-75
2021/01/08 05:07:15;;;;;;;50.35;28.90;;;128.70;2176.00;;;;;;5136122;27;20023;-74
2021/01/08 05:09:41;;;;;;;28.08;16.27;;;128.80;2201.60;;;;;;5136220;27;20019;-75
2021/01/08 05:12:07;;;;;;;6.80;5.07;;;128.90;2227.20;;;;;;5136017;27;20038;-75
2021/01/08 05:14:34;;;;;;;6.90;3.85;;;128.80;2201.60;;;;;;5136455;27;20051;-75
2021/01/08 05:16:59;;;;;;;7.00;4.57;;;128.90;2201.60;;;;;;5135972;27;20020;-73
2021/01/08 05:19:25;;;;;;;12.02;6.18;;;128.90;2227.20;;;;;;5135874;27;20038;-76
2021/01/08 05:21:55;;;;;;;39.50;12.15;;;153.60;2201.60;;;;;;5135754;27;20106;-75
2021/01/08 05:24:24;;;;;;;26.17;10.70;;;153.70;2201.60;;;;;;5135846;27;20498;-76
2021/01/08 05:26:50;;;;;;;14.55;6.65;;;153.80;2201.60;;;;;;5135732;27;20031;-75
2021/01/08 05:29:17;;;;;;;10.82;5.80;;;153.90;2176.00;;;;;;5135370;27;20104;-76
2021/01/08 05:31:43;;;;;;;7.47;4.63;;;153.90;2176.00;;;;;;5135471;27;20066;-75
2021/01/08 05:34:09;;;;;;;9.95;4.80;;;153.90;2150.40;;;;;;5135707;27;20058;-75
2021/01/08 05:36:36;;;;;;;5.82;3.63;;;153.90;2150.40;;;;;;5135495;27;20027;-75
2021/01/08 05:39:03;;;;;;;6.03;3.92;;;153.90;2150.40;;;;;;5135505;27;20084;-75
2021/01/08 05:41:31;;;;;;;9.65;5.82;;;154.00;2124.80;;;;;;5135402;27;20027;-74
2021/01/08 05:43:58;;;;;;;7.40;4.63;;;154.00;2150.40;;;;;;5135365;27;20023;-75
2021/01/08 05:46:34;;;;;;;15.38;11.13;;;154.10;2124.80;;;;;;5135265;27;20024;-76
2021/01/08 05:49:05;;;;;;;14.77;8.90;;;154.10;2150.40;;;;;;5135636;27;20027;-76
2021/01/08 05:51:35;;;;;;;13.57;9.02;;;154.00;2150.40;;;;;;5135192;27;20027;-75
2021/01/08 05:54:02;;;;;;;14.13;9.30;;;154.10;2150.40;;;;;;5135024;27;20019;-75
2021/01/08 05:56:35;;;;;;;8.95;6.47;;;154.10;2150.40;;;;;;5135258;27;20023;-76
2021/01/08 05:59:07;;;;;;;7.35;5.32;;;154.10;2150.40;;;;;;5135071;27;20041;-75
2021/01/08 06:01:36;;;;;;;12.02;7.55;;;154.10;2124.80;;;;;;5135097;27;20020;-74
2021/01/08 06:04:01;;;;;;;13.30;8.65;;;154.20;2150.40;;;;;;5134965;27;20026;-75
2021/01/08 06:06:41;;;;;;;12.38;9.52;;;154.20;2150.40;;;;;;5134662;27;20019;-74
2021/01/08 06:09:10;;;;;;;9.88;7.40;;;154.20;2150.40;;;;;;5135001;27;20414;-75
2021/01/08 06:11:37;;;;;;;9.25;7.10;;;154.20;2150.40;;;;;;5134719;27;20487;-75
2021/01/08 06:14:06;;;;;;;35.53;22.17;;;154.20;2150.40;;;;;;5134841;27;20038;-74
2021/01/08 06:16:43;;;;;;;42.20;25.30;;;154.30;2150.40;;;;;;5134838;27;20057;-76
2021/01/08 06:19:09;;;;;;;44.63;27.48;;;154.20;2176.00;;;;;;5134673;27;20027;-75
2021/01/08 06:21:46;;;;;;;32.95;22.30;;;154.20;2150.40;;;;;;5134641;27;20391;-74
2021/01/08 06:24:28;;;;;;;24.95;14.52;;;154.20;2150.40;;;;;;5134627;27;20076;-75
2021/01/08 06:26:54;;;;;;;28.65;18.20;;;154.20;2150.40;;;;;;5134627;27;20387;-75
2021/01/08 06:29:33;;;;;;;14.38;9.68;;;154.20;2150.40;;;;;;5134631;27;20054;-75
2021/01/08 06:32:11;;;;;;;12.45;9.73;;;154.30;2150.40;;;;;;5134602;27;20031;-75
2021/01/08 06:34:46;;;;;;;30.55;19.27;;;154.30;2150.40;;;;;;5134553;27;20023;-75
2021/01/08 06:37:14;;;;;;;97.30;62.20;;;154.20;2150.40;;;;;;5134393;27;20045;-74
2021/01/08 06:39:41;;;;;;;57.28;45.17;;;154.20;2124.80;;;;;;5134247;27;20475;-75
2021/01/08 06:42:07;;;;;;;29.48;22.80;;;154.30;2124.80;;;;;;5134385;27;20454;-76
2021/01/08 06:44:34;;;;;;;18.42;13.18;;;154.20;2150.40;;;;;;5134478;27;20038;-74
2021/01/08 06:47:02;;;;;;;30.85;21.67;;;154.30;2150.40;;;;;;5134438;27;20106;-75
2021/01/08 06:49:32;;;;;;;22.98;16.95;;;154.30;2150.40;;;;;;5134599;27;20062;-76
2021/01/08 06:52:03;;;;;;;23.77;16.50;;;154.10;2124.80;;;;;;5134117;27;20417;-74
2021/01/08 06:54:29;;;;;;;19.15;12.02;;;154.20;2124.80;;;;;;5134154;27;20023;-75
2021/01/08 06:57:01;;;;;;;16.90;12.93;;;154.20;2124.80;;;;;;5133423;27;20031;-75
2021/01/08 06:59:32;;;;;;;25.10;16.90;;;154.30;2124.80;;;;;;5134265;28;20023;-73
2021/01/08 07:02:09;;;;;;;34.70;24.73;;;154.30;2124.80;;;;;;5134422;28;20019;-75
2021/01/08 07:04:38;;;;;;;35.10;24.38;;;154.30;2124.80;;;;;;5134233;28;20027;-75
2021/01/08 07:07:11;;;;;;;25.52;17.40;;;154.30;2124.80;;;;;;5133933;28;20031;-75
2021/01/08 07:09:38;;;;;;;24.65;15.80;;;154.20;2124.80;;;;;;5134050;28;20027;-76
2021/01/08 07:12:05;;;;;;;28.85;21.17;;;154.30;2124.80;;;;;;5134121;28;20030;-74
2021/01/08 07:14:32;;;;;;;25.92;20.63;;;154.10;2099.20;;;;;;5134132;28;20038;-75
2021/01/08 07:16:58;;;;;;;64.50;50.15;;;153.80;2124.80;;;;;;5116559;28;20450;-74
2021/01/08 07:19:27;;;;;;;33.10;23.38;;;153.70;2150.40;;;;;;5113454;28;20481;-73
2021/01/08 07:21:59;;;;;;;23.05;16.52;;;153.60;2150.40;;;;;;5133517;28;20035;-76
2021/01/08 07:24:31;;;;;;;34.47;23.88;;;153.60;2150.40;;;;;;5092757;28;20020;-74
2021/01/08 07:27:16;;;;;;;22.40;16.23;;;153.70;2150.40;;;;;;5075109;28;20043;-74
2021/01/08 07:30:01;;;;;;;26.85;19.23;;;128.90;2150.40;;;;;;5112483;28;20046;-75
2021/01/08 07:32:41;;;;;;;29.90;21.02;;;153.60;2150.40;;;;;;5133699;28;20059;-73
2021/01/08 07:35:34;;;;;;;23.40;17.13;;;128.90;2124.80;;;;;;5133536;28;20027;-74
2021/01/08 07:37:59;;;;;;;27.48;18.15;;;128.80;2124.80;;;;;;5130464;28;20036;-73
2021/01/08 07:40:35;;;;;;;40.25;25.65;;;128.50;2150.40;;;;;;5133899;28;20564;-73
2021/01/08 07:43:11;;;;;;;39.08;24.27;;;128.50;2176.00;;;;;;5117474;28;20027;-74
2021/01/08 07:45:52;;;;;;;47.65;29.83;;;128.70;2124.80;;;;;;5113393;28;20026;-74
2021/01/08 07:48:20;;;;;;;38.00;26.83;;;128.80;2150.40;;;;;;5115811;28;20072;-74
2021/01/08 07:50:54;;;;;;;43.95;29.80;;;128.90;2124.80;;;;;;5112948;28;20076;-73
2021/01/08 07:53:47;;;;;;;66.80;47.13;;;128.90;2099.20;;;;;;5114036;28;20028;-75
2021/01/08 07:56:15;;;;;;;68.40;45.42;;;153.60;2099.20;;;;;;5122575;28;20033;-73
2021/01/08 07:58:58;;;;;;;49.92;43.30;;;153.60;2099.20;;;;;;5124397;28;20398;-73
2021/01/08 08:01:24;;;;;;;26.85;19.38;;;153.60;2073.60;;;;;;5129669;28;20391;-73
2021/01/08 08:04:02;;;;;;;37.65;26.83;;;153.70;2048.00;;;;;;5117662;28;20472;-76
2021/01/08 08:06:33;;;;;;;37.65;28.35;;;153.70;2048.00;;;;;;5113000;28;20085;-75
2021/01/08 08:09:01;;;;;;;45.80;32.95;;;153.70;2048.00;;;;;;5127207;27;20019;-75
2021/01/08 08:11:29;;;;;;;47.42;39.10;;;153.60;2048.00;;;;;;5128927;27;20429;-76
2021/01/08 08:13:55;;;;;;;46.70;33.55;;;128.90;2048.00;;;;;;5136952;27;20023;-75
2021/01/08 08:16:38;;;;;;;56.03;41.30;;;128.80;2073.60;;;;;;5137339;27;20106;-75
2021/01/08 08:19:06;;;;;;;73.75;55.55;;;128.90;2073.60;;;;;;5137073;27;20110;-74
2021/01/08 08:21:33;;;;;;;31.13;23.98;;;153.60;2073.60;;;;;;5136893;27;20034;-75
2021/01/08 08:24:03;;;;;;;35.92;24.50;;;128.90;2048.00;;;;;;5137290;27;20080;-74
2021/01/08 08:26:31;;;;;;;27.92;20.90;;;128.80;2073.60;;;;;;5136914;27;20479;-75
2021/01/08 08:29:05;;;;;;;35.05;27.95;;;128.70;2073.60;;;;;;5136713;27;20084;-76
2021/01/08 08:31:33;;;;;;;34.30;24.05;;;128.70;2099.20;;;;;;5136636;27;20058;-75
2021/01/08 08:33:59;;;;;;;51.90;35.40;;;128.80;2073.60;;;;;;5137025;27;20011;-75
2021/01/08 08:36:26;;;;;;;54.50;39.50;;;128.80;2099.20;;;;;;5136793;27;20065;-74
2021/01/08 08:38:59;;;;;;;39.60;29.95;;;128.80;2099.20;;;;;;5136326;27;20030;-76
2021/01/08 08:41:26;;;;;;;44.58;32.15;;;128.90;2073.60;;;;;;5136789;27;20092;-76
2021/01/08 08:44:02;;;;;;;49.30;37.72;;;128.90;2073.60;;;;;;5136148;27;20019;-76
2021/01/08 08:46:40;;;;;;;32.10;24.60;;;153.60;2048.00;;;;;;5136625;27;20514;-76
2021/01/08 08:49:07;;;;;;;26.27;17.08;;;153.60;2073.60;;;;;;5136615;27;20031;-76
2021/01/08 08:51:33;;;;;;;31.73;25.92;;;128.80;2073.60;;;;;;5117904;27;20039;-76
2021/01/08 08:53:59;;;;;;;21.80;16.58;;;128.80;2073.60;;;;;;5136662;27;20019;-80
2021/01/08 08:56:25;;;;;;;26.27;20.65;;;128.50;2073.60;;;;;;5118041;27;20382;-76
2021/01/08 08:58:51;;;;;;;21.67;16.65;;;128.40;2099.20;;;;;;5135634;27;20102;-77
2021/01/08 09:01:16;;;;;;;28.85;21.00;;;128.50;2099.20;;;;;;5136408;27;20031;-78
2021/01/08 09:03:42;;;;;;;29.15;22.95;;;128.50;2099.20;;;;;;5136437;27;20019;-79
2021/01/08 09:06:12;;;;;;;338.52;176.30;;;128.50;2099.20;;;;;;5117985;27;20023;-76
2021/01/08 09:08:39;;;;;;;42.35;29.48;;;128.50;2099.20;;;;;;5135928;27;20486;-76
2021/01/08 09:11:25;;;;;;;30.48;22.10;;;128.30;2099.20;;;;;;5117287;27;20035;-76
2021/01/08 09:13:56;;;;;;;30.08;21.40;;;128.10;2124.80;;;;;;5135996;27;20068;-76
2021/01/08 09:16:36;;;;;;;22.33;17.83;;;128.30;2150.40;;;;;;5135927;27;20019;-76
2021/01/08 09:19:20;;;;;;;24.05;18.08;;;128.40;2099.20;;;;;;5135296;27;20055;-76
2021/01/08 09:21:50;;;;;;;31.95;26.67;;;128.50;2099.20;;;;;;5135788;27;20027;-76
2021/01/08 09:24:28;;;;;;;30.02;26.55;;;128.60;2099.20;;;;;;5135861;27;20023;-76
2021/01/08 09:27:01;;;;;;;34.17;26.70;;;128.60;2099.20;;;;;;5135679;27;20027;-75
2021/01/08 09:29:32;;;;;;;33.95;25.60;;;128.60;2073.60;;;;;;5135513;27;20065;-76
2021/01/08 09:31:58;;;;;;;46.22;38.80;;;128.70;2073.60;;;;;;5135672;27;20060;-77
2021/01/08 09:34:25;;;;;;;65.07;47.08;;;128.60;2073.60;;;;;;5135454;27;20024;-76
2021/01/08 09:36:53;;;;;;;54.35;41.20;;;128.60;2073.60;;;;;;5117099;27;20030;-76
2021/01/08 09:39:20;;;;;;;44.45;34.17;;;128.60;2073.60;;;;;;5135680;27;20022;-76
2021/01/08 09:41:55;;;;;;;29.95;23.35;;;128.60;2099.20;;;;;;5134957;27;20506;-77
2021/01/08 09:44:30;;;;;;;53.70;43.40;;;128.80;2073.60;;;;;;5117028;27;20068;-76
2021/01/08 09:46:58;;;;;;;66.70;52.78;;;128.90;2099.20;;;;;;5135416;27;20019;-76
2021/01/08 09:49:39;;;;;;;70.15;54.10;;;128.90;2073.60;;;;;;5135369;27;20451;-76
2021/01/08 09:52:06;;;;;;;85.78;66.15;;;128.90;2073.60;;;;;;5135309;27;20038;-76
2021/01/08 09:54:49;;;;;;;100.93;71.72;;;128.90;2073.60;;;;;;5134898;27;20080;-76
2021/01/08 09:57:33;;;;;;;120.35;90.05;;;128.90;2073.60;;;;;;5134778;27;20452;-76
2021/01/08 10:00:09;;;;;;;133.55;96.72;;;128.70;2099.20;;;;;;5116756;27;20027;-76
2021/01/08 10:02:40;;;;;;;126.85;103.03;;;128.70;2099.20;;;;;;5135221;27;20047;-76
2021/01/08 10:05:50;;;;;;;88.57;71.93;;;128.70;2099.20;;;;;;5135148;27;20015;-75
2021/01/08 10:08:20;;;;;;;69.80;55.92;;;128.70;2073.60;;;;;;5051778;28;20049;-76
2021/01/08 10:10:47;;;;;;;67.63;52.40;;;128.70;2099.20;;;;;;5051624;28;20103;-76
2021/01/08 10:13:17;;;;;;;120.10;77.25;;;128.80;2073.60;;;;;;5051650;28;20052;-76
2021/01/08 10:15:48;;;;;;;80.63;59.03;;;128.70;2073.60;;;;;;5051685;28;20529;-76
2021/01/08 10:18:20;;;;;;;69.75;53.13;;;128.70;2073.60;;;;;;5051553;28;20477;-76
2021/01/08 10:20:56;;;;;;;87.15;63.00;;;128.70;2048.00;;;;;;5051723;28;20031;-76
2021/01/08 10:23:24;;;;;;;123.88;85.93;;;128.80;2048.00;;;;;;5051458;28;20029;-76
2021/01/08 10:25:50;;;;;;;83.07;62.95;;;128.80;2048.00;;;;;;5051732;28;20477;-76
2021/01/08 10:28:24;;;;;;;120.63;86.78;;;128.80;2048.00;;;;;;5051290;28;20090;-76
2021/01/08 10:30:54;;;;;;;122.30;87.22;;;128.70;2048.00;;;;;;5034351;28;20025;-76
2021/01/08 10:33:25;;;;;;;132.38;95.78;;;128.60;2048.00;;;;;;5051039;28;20044;-75
2021/01/08 10:35:52;;;;;;;152.00;96.57;;;128.50;2048.00;;;;;;5051435;28;20519;-76
2021/01/08 10:38:19;;;;;;;128.05;81.65;;;128.50;2048.00;;;;;;5051135;28;20100;-76
2021/01/08 10:40:44;;;;;;;104.55;70.25;;;128.40;2048.00;;;;;;5051307;28;20100;-76
2021/01/08 10:43:10;;;;;;;125.63;81.85;;;128.40;2048.00;;;;;;5051306;28;20486;-76
2021/01/08 10:45:37;;;;;;;86.60;59.83;;;128.50;2048.00;;;;;;5125812;27;20088;-75
2021/01/08 10:48:04;;;;;;;91.70;59.65;;;128.50;2048.00;;;;;;5134579;27;20456;-76
2021/01/08 10:50:30;;;;;;;62.25;46.42;;;128.50;2048.00;;;;;;5134567;27;20046;-75
2021/01/08 10:52:56;;;;;;;58.78;46.60;;;128.50;2048.00;;;;;;5126959;27;20460;-75
2021/01/08 10:55:21;;;;;;;57.75;45.13;;;128.50;2048.00;;;;;;5120837;27;20023;-76
2021/01/08 10:57:47;;;;;;;83.50;66.30;;;128.50;2048.00;;;;;;5113950;28;20381;-77
2021/01/08 11:00:16;;;;;;;125.97;94.30;;;128.60;2048.00;;;;;;5113446;28;20058;-76
2021/01/08 11:02:42;;;;;;;149.35;109.97;;;128.60;2048.00;;;;;;5113212;28;20487;-75
2021/01/08 11:05:08;;;;;;;156.13;112.25;;;128.50;2048.00;;;;;;5113705;28;20023;-75
2021/01/08 11:07:34;;;;;;;142.63;105.97;;;128.40;2048.00;;;;;;5113059;28;20072;-76
2021/01/08 11:10:01;;;;;;;138.13;102.55;;;128.50;2048.00;;;;;;5117591;28;20027;-76
2021/01/08 11:12:27;;;;;;;139.70;102.05;;;128.40;2048.00;;;;;;5113355;28;20032;-76
2021/01/08 11:14:55;;;;;;;133.07;95.35;;;128.50;2022.40;;;;;;5113467;28;20521;-76
2021/01/08 11:17:21;;;;;;;111.53;80.25;;;128.50;2022.40;;;;;;5095250;28;20395;-76
2021/01/08 11:19:47;;;;;;;114.38;80.68;;;128.50;2048.00;;;;;;5113365;28;20015;-76
2021/01/08 11:22:13;;;;;;;94.30;67.82;;;128.40;2048.00;;;;;;5095321;28;20137;-76
2021/01/08 11:24:38;;;;;;;151.73;109.22;;;128.40;2048.00;;;;;;5113580;28;20024;-76
2021/01/08 11:27:05;;;;;;;288.00;215.73;;;128.40;2048.00;;;;;;5113443;28;20038;-76
2021/01/08 11:29:31;;;;;;;146.18;111.65;;;128.40;2048.00;;;;;;5113070;28;20040;-76
2021/01/08 11:31:57;;;;;;;141.10;116.13;;;128.40;2048.00;;;;;;5113222;28;20024;-76
2021/01/08 11:34:23;;;;;;;137.25;109.30;;;128.40;2073.60;;;;;;5113260;28;20507;-77
2021/01/08 11:36:53;;;;;;;116.80;95.20;;;128.40;2073.60;;;;;;5113539;28;20028;-76
2021/01/08 11:39:19;;;;;;;125.43;97.78;;;128.30;2073.60;;;;;;5113376;28;20023;-76
2021/01/08 11:41:45;;;;;;;131.77;104.03;;;128.40;2073.60;;;;;;5113386;28;20028;-76
2021/01/08 11:44:10;;;;;;;158.63;122.55;;;128.40;2073.60;;;;;;5116365;28;20016;-76
2021/01/08 11:46:36;;;;;;;156.07;115.13;;;128.50;2073.60;;;;;;5117129;28;20023;-76
2021/01/08 11:49:02;;;;;;;172.75;126.80;;;128.60;2073.60;;;;;;5117079;28;20388;-76
2021/01/08 11:51:27;;;;;;;198.55;143.60;;;128.60;2048.00;;;;;;5117007;28;20024;-76
2021/01/08 11:53:53;;;;;;;182.98;137.40;;;128.60;2073.60;;;;;;5117079;28;20088;-76
2021/01/08 11:56:27;;;;;;;181.32;131.73;;;128.60;2048.00;;;;;;5117106;28;20027;-76
2021/01/08 11:58:53;;;;;;;154.50;113.05;;;128.30;2073.60;;;;;;5116964;28;20037;-76
2021/01/08 12:01:24;;;;;;;146.55;112.32;;;128.30;2073.60;;;;;;5116860;28;20024;-76
2021/01/08 12:03:49;;;;;;;146.05;107.43;;;128.40;2073.60;;;;;;5116744;28;20019;-76
2021/01/08 12:06:16;;;;;;;193.90;137.05;;;128.30;2099.20;;;;;;5116969;28;20091;-76
2021/01/08 12:08:42;;;;;;;171.38;128.27;;;128.30;2073.60;;;;;;5116773;28;20103;-76
2021/01/08 12:11:08;;;;;;;166.18;135.13;;;128.40;2099.20;;;;;;5116763;28;20479;-77
2021/01/08 12:13:34;;;;;;;177.38;133.05;;;128.50;2073.60;;;;;;5116857;28;20027;-76